N13391 KEGE-KASE
Flight info
| Callsign | N13391 |
|---|---|
| Flight time | 0h 10m |
| Altitude | VFR |
| Route | |
| Aircraft | BE35/L-DOV/C |
Departure
| Time | 2026-04-30 01:20 |
|---|---|
| Airport | Eagle County Regional Airport (KEGE) |
Arrival
| Time | 2026-04-30 01:30 |
|---|---|
| Airport | Aspen-Pitkin County Airport (Sardy Field) (KASE) |
| Time | Latitude | Longitude | Altitude | Speed | Heading |
|---|---|---|---|---|---|
| 2026-04-30 01:16 | 39.64218 | -106.90463 | 6531 ft | 0 kts | 18° |
| 2026-04-30 01:17 | 39.64235 | -106.90429 | 6532 ft | 12 kts | 67° |
| 2026-04-30 01:17 | 39.64251 | -106.90373 | 6534 ft | 0 kts | 52° |
| 2026-04-30 01:17 | 39.64287 | -106.90346 | 6535 ft | 14 kts | 35° |
| 2026-04-30 01:17 | 39.64322 | -106.90169 | 6540 ft | 26 kts | 80° |
| 2026-04-30 01:18 | 39.64345 | -106.90028 | 6545 ft | 0 kts | 44° |
| 2026-04-30 01:18 | 39.64352 | -106.90021 | 6546 ft | 6 kts | 30° |
| 2026-04-30 01:19 | 39.64432 | -106.90078 | 6546 ft | 25 kts | 284° |
| 2026-04-30 01:19 | 39.64384 | -106.90580 | 6532 ft | 99 kts | 261° |
| 2026-04-30 01:19 | 39.64251 | -106.91676 | 6656 ft | 140 kts | 262° |
| 2026-04-30 01:19 | 39.64135 | -106.92990 | 7020 ft | 149 kts | 266° |
| 2026-04-30 01:20 | 39.63910 | -106.94252 | 7635 ft | 134 kts | 241° |
| 2026-04-30 01:20 | 39.63237 | -106.95036 | 8102 ft | 138 kts | 204° |
| 2026-04-30 01:20 | 39.62286 | -106.95358 | 8441 ft | 142 kts | 183° |
| 2026-04-30 01:20 | 39.61313 | -106.95565 | 8869 ft | 143 kts | 187° |
| 2026-04-30 01:21 | 39.60361 | -106.96010 | 9302 ft | 141 kts | 191° |
| 2026-04-30 01:21 | 39.59336 | -106.96067 | 9591 ft | 161 kts | 172° |
| 2026-04-30 01:21 | 39.58228 | -106.95831 | 10104 ft | 165 kts | 168° |
| 2026-04-30 01:21 | 39.57053 | -106.95491 | 10366 ft | 179 kts | 166° |
| 2026-04-30 01:22 | 39.55835 | -106.95061 | 10604 ft | 190 kts | 162° |
| 2026-04-30 01:22 | 39.54626 | -106.94511 | 11200 ft | 177 kts | 158° |
| 2026-04-30 01:22 | 39.53460 | -106.93777 | 11264 ft | 200 kts | 147° |
| 2026-04-30 01:22 | 39.52267 | -106.92703 | 11029 ft | 214 kts | 141° |
| 2026-04-30 01:23 | 39.51123 | -106.91472 | 11059 ft | 211 kts | 142° |
| 2026-04-30 01:23 | 39.49972 | -106.90520 | 11835 ft | 180 kts | 150° |
| 2026-04-30 01:23 | 39.48833 | -106.89872 | 12201 ft | 179 kts | 166° |
| 2026-04-30 01:23 | 39.47606 | -106.89683 | 12503 ft | 179 kts | 183° |
| 2026-04-30 01:24 | 39.46367 | -106.89745 | 12813 ft | 180 kts | 185° |
| 2026-04-30 01:24 | 39.45084 | -106.89812 | 13027 ft | 185 kts | 181° |
| 2026-04-30 01:24 | 39.43798 | -106.89667 | 13270 ft | 190 kts | 176° |
| 2026-04-30 01:24 | 39.42496 | -106.89399 | 13554 ft | 191 kts | 172° |
| 2026-04-30 01:25 | 39.41221 | -106.89105 | 13919 ft | 187 kts | 172° |
| 2026-04-30 01:25 | 39.39927 | -106.88806 | 14193 ft | 187 kts | 172° |
| 2026-04-30 01:25 | 39.38680 | -106.88519 | 14589 ft | 181 kts | 175° |
| 2026-04-30 01:25 | 39.37451 | -106.88317 | 14923 ft | 178 kts | 178° |
| 2026-04-30 01:26 | 39.36180 | -106.88146 | 15032 ft | 189 kts | 176° |
| 2026-04-30 01:26 | 39.34848 | -106.87904 | 15152 ft | 192 kts | 174° |
| 2026-04-30 01:26 | 39.33467 | -106.87744 | 14653 ft | 214 kts | 180° |
| 2026-04-30 01:26 | 39.31912 | -106.87791 | 13752 ft | 234 kts | 188° |
| 2026-04-30 01:27 | 39.30274 | -106.88102 | 12869 ft | 235 kts | 192° |
| 2026-04-30 01:27 | 39.28662 | -106.88509 | 11740 ft | 241 kts | 197° |
| 2026-04-30 01:27 | 39.27075 | -106.88494 | 11248 ft | 222 kts | 155° |
| 2026-04-30 01:27 | 39.26164 | -106.87100 | 10910 ft | 204 kts | 100° |
| 2026-04-30 01:28 | 39.26634 | -106.85682 | 10842 ft | 154 kts | 25° |
| 2026-04-30 01:28 | 39.27596 | -106.85865 | 10124 ft | 161 kts | 315° |
| 2026-04-30 01:28 | 39.27743 | -106.87192 | 9786 ft | 155 kts | 251° |
| 2026-04-30 01:28 | 39.27029 | -106.88306 | 8787 ft | 167 kts | 212° |
| 2026-04-30 01:29 | 39.25940 | -106.88638 | 8136 ft | 156 kts | 173° |
| 2026-04-30 01:29 | 39.25097 | -106.88225 | 7862 ft | 111 kts | 150° |
| 2026-04-30 01:29 | 39.24418 | -106.87851 | 7781 ft | 102 kts | 162° |
| 2026-04-30 01:29 | 39.23728 | -106.87557 | 7829 ft | 103 kts | 158° |
| 2026-04-30 01:30 | 39.23097 | -106.87246 | 7727 ft | 97 kts | 161° |
| 2026-04-30 01:30 | 39.22560 | -106.86992 | 7732 ft | 56 kts | 160° |
| 2026-04-30 01:30 | 39.22317 | -106.86865 | 7747 ft | 21 kts | 121° |
| 2026-04-30 01:30 | 39.22396 | -106.86803 | 7743 ft | 23 kts | 340° |
| 2026-04-30 01:31 | 39.22530 | -106.86869 | 7737 ft | 20 kts | 341° |
| 2026-04-30 01:31 | 39.22639 | -106.86872 | 7729 ft | 12 kts | 32° |
| 2026-04-30 01:31 | 39.22668 | -106.86883 | 7728 ft | 0 kts | 245° |